sensor_id;sensor_type;location;lat;lon;timestamp;P1;durP1;ratioP1;P2;durP2;ratioP2
75851;SDS011;64500;52.632;20.656;2023-04-28T00:01:44;27.50;;;12.90;;
75851;SDS011;64500;52.632;20.656;2023-04-28T00:04:11;27.40;;;13.40;;
75851;SDS011;64500;52.632;20.656;2023-04-28T00:06:38;31.40;;;13.90;;
75851;SDS011;64500;52.632;20.656;2023-04-28T00:09:06;31.40;;;14.30;;
75851;SDS011;64500;52.632;20.656;2023-04-28T00:11:37;35.70;;;16.00;;
75851;SDS011;64500;52.632;20.656;2023-04-28T00:14:04;39.40;;;17.70;;
75851;SDS011;64500;52.632;20.656;2023-04-28T00:16:32;34.60;;;14.40;;
75851;SDS011;64500;52.632;20.656;2023-04-28T00:18:59;35.40;;;17.20;;
75851;SDS011;64500;52.632;20.656;2023-04-28T00:21:26;40.30;;;16.90;;
75851;SDS011;64500;52.632;20.656;2023-04-28T00:23:54;30.90;;;15.70;;
75851;SDS011;64500;52.632;20.656;2023-04-28T00:26:21;36.30;;;16.90;;
75851;SDS011;64500;52.632;20.656;2023-04-28T00:28:49;36.10;;;17.30;;
75851;SDS011;64500;52.632;20.656;2023-04-28T00:31:16;39.70;;;18.00;;
75851;SDS011;64500;52.632;20.656;2023-04-28T00:33:44;38.60;;;17.80;;
75851;SDS011;64500;52.632;20.656;2023-04-28T00:36:11;33.10;;;15.90;;
75851;SDS011;64500;52.632;20.656;2023-04-28T00:38:38;42.00;;;21.80;;
75851;SDS011;64500;52.632;20.656;2023-04-28T00:41:05;41.10;;;19.60;;
75851;SDS011;64500;52.632;20.656;2023-04-28T00:43:47;45.20;;;20.10;;
75851;SDS011;64500;52.632;20.656;2023-04-28T00:46:22;37.70;;;18.60;;
75851;SDS011;64500;52.632;20.656;2023-04-28T00:48:52;35.40;;;18.10;;
75851;SDS011;64500;52.632;20.656;2023-04-28T00:51:19;38.50;;;19.60;;
75851;SDS011;64500;52.632;20.656;2023-04-28T00:53:47;38.00;;;18.30;;
75851;SDS011;64500;52.632;20.656;2023-04-28T00:56:14;35.50;;;18.60;;
75851;SDS011;64500;52.632;20.656;2023-04-28T00:58:41;42.00;;;19.00;;
75851;SDS011;64500;52.632;20.656;2023-04-28T01:01:09;34.10;;;18.30;;
75851;SDS011;64500;52.632;20.656;2023-04-28T01:03:37;45.20;;;19.50;;
75851;SDS011;64500;52.632;20.656;2023-04-28T01:06:06;35.90;;;17.70;;
75851;SDS011;64500;52.632;20.656;2023-04-28T01:08:34;36.60;;;18.00;;
75851;SDS011;64500;52.632;20.656;2023-04-28T01:11:02;41.90;;;19.10;;
75851;SDS011;64500;52.632;20.656;2023-04-28T01:13:30;40.60;;;18.50;;
75851;SDS011;64500;52.632;20.656;2023-04-28T01:15:57;40.90;;;21.00;;
75851;SDS011;64500;52.632;20.656;2023-04-28T01:18:24;45.80;;;21.60;;
75851;SDS011;64500;52.632;20.656;2023-04-28T01:20:51;46.80;;;23.20;;
75851;SDS011;64500;52.632;20.656;2023-04-28T01:23:18;48.80;;;23.60;;
75851;SDS011;64500;52.632;20.656;2023-04-28T01:25:45;48.60;;;23.70;;
75851;SDS011;64500;52.632;20.656;2023-04-28T01:28:12;48.10;;;22.10;;
75851;SDS011;64500;52.632;20.656;2023-04-28T01:30:39;42.70;;;22.20;;
75851;SDS011;64500;52.632;20.656;2023-04-28T01:33:06;49.60;;;22.60;;
75851;SDS011;64500;52.632;20.656;2023-04-28T01:35:33;47.90;;;23.90;;
75851;SDS011;64500;52.632;20.656;2023-04-28T01:38:00;54.50;;;26.00;;
75851;SDS011;64500;52.632;20.656;2023-04-28T01:40:27;53.20;;;25.70;;
75851;SDS011;64500;52.632;20.656;2023-04-28T01:42:54;54.10;;;24.60;;
75851;SDS011;64500;52.632;20.656;2023-04-28T01:45:21;52.70;;;25.60;;
75851;SDS011;64500;52.632;20.656;2023-04-28T01:47:48;50.90;;;23.90;;
75851;SDS011;64500;52.632;20.656;2023-04-28T01:50:15;49.60;;;26.50;;
75851;SDS011;64500;52.632;20.656;2023-04-28T01:52:43;49.00;;;24.60;;
75851;SDS011;64500;52.632;20.656;2023-04-28T01:55:10;45.50;;;22.90;;
75851;SDS011;64500;52.632;20.656;2023-04-28T01:57:38;46.80;;;22.60;;
75851;SDS011;64500;52.632;20.656;2023-04-28T02:00:05;47.30;;;22.60;;
75851;SDS011;64500;52.632;20.656;2023-04-28T02:02:33;49.20;;;22.40;;
75851;SDS011;64500;52.632;20.656;2023-04-28T02:05:00;55.50;;;24.40;;
75851;SDS011;64500;52.632;20.656;2023-04-28T02:07:26;55.70;;;23.90;;
75851;SDS011;64500;52.632;20.656;2023-04-28T02:09:53;52.10;;;24.90;;
75851;SDS011;64500;52.632;20.656;2023-04-28T02:12:20;50.60;;;24.70;;
75851;SDS011;64500;52.632;20.656;2023-04-28T02:14:47;49.20;;;24.20;;
75851;SDS011;64500;52.632;20.656;2023-04-28T02:17:14;50.50;;;24.30;;
75851;SDS011;64500;52.632;20.656;2023-04-28T02:19:41;47.10;;;24.60;;
75851;SDS011;64500;52.632;20.656;2023-04-28T02:22:08;51.80;;;24.80;;
75851;SDS011;64500;52.632;20.656;2023-04-28T02:24:35;43.70;;;22.60;;
75851;SDS011;64500;52.632;20.656;2023-04-28T02:27:03;46.70;;;22.30;;
75851;SDS011;64500;52.632;20.656;2023-04-28T02:29:31;51.00;;;23.40;;
75851;SDS011;64500;52.632;20.656;2023-04-28T02:31:58;51.80;;;23.90;;
75851;SDS011;64500;52.632;20.656;2023-04-28T02:34:25;55.30;;;25.30;;
75851;SDS011;64500;52.632;20.656;2023-04-28T02:36:52;49.90;;;25.30;;
75851;SDS011;64500;52.632;20.656;2023-04-28T02:39:19;54.70;;;28.10;;
75851;SDS011;64500;52.632;20.656;2023-04-28T02:41:50;50.20;;;25.20;;
75851;SDS011;64500;52.632;20.656;2023-04-28T02:44:18;54.60;;;25.50;;
75851;SDS011;64500;52.632;20.656;2023-04-28T02:46:46;71.40;;;30.10;;
75851;SDS011;64500;52.632;20.656;2023-04-28T02:49:13;71.60;;;31.90;;
75851;SDS011;64500;52.632;20.656;2023-04-28T02:51:39;55.10;;;27.30;;
75851;SDS011;64500;52.632;20.656;2023-04-28T02:54:06;69.30;;;29.60;;
75851;SDS011;64500;52.632;20.656;2023-04-28T02:56:34;73.70;;;33.80;;
75851;SDS011;64500;52.632;20.656;2023-04-28T02:59:02;70.70;;;31.50;;
75851;SDS011;64500;52.632;20.656;2023-04-28T03:01:29;71.20;;;30.50;;
75851;SDS011;64500;52.632;20.656;2023-04-28T03:03:56;60.80;;;27.00;;
75851;SDS011;64500;52.632;20.656;2023-04-28T03:06:23;57.90;;;25.30;;
75851;SDS011;64500;52.632;20.656;2023-04-28T03:08:50;49.80;;;24.50;;
75851;SDS011;64500;52.632;20.656;2023-04-28T03:11:17;51.90;;;24.60;;
75851;SDS011;64500;52.632;20.656;2023-04-28T03:13:44;59.20;;;26.60;;
75851;SDS011;64500;52.632;20.656;2023-04-28T03:16:10;54.60;;;24.50;;
75851;SDS011;64500;52.632;20.656;2023-04-28T03:18:37;51.70;;;23.70;;
75851;SDS011;64500;52.632;20.656;2023-04-28T03:21:04;53.40;;;24.20;;
75851;SDS011;64500;52.632;20.656;2023-04-28T03:23:31;46.60;;;23.10;;
75851;SDS011;64500;52.632;20.656;2023-04-28T03:25:58;51.90;;;23.60;;
75851;SDS011;64500;52.632;20.656;2023-04-28T03:28:25;50.20;;;23.40;;
75851;SDS011;64500;52.632;20.656;2023-04-28T03:30:52;49.00;;;23.60;;
75851;SDS011;64500;52.632;20.656;2023-04-28T03:33:19;57.00;;;23.40;;
75851;SDS011;64500;52.632;20.656;2023-04-28T03:35:46;56.40;;;25.20;;
75851;SDS011;64500;52.632;20.656;2023-04-28T03:38:13;49.00;;;24.20;;
75851;SDS011;64500;52.632;20.656;2023-04-28T03:40:41;54.90;;;25.70;;
75851;SDS011;64500;52.632;20.656;2023-04-28T03:43:07;54.80;;;26.80;;
75851;SDS011;64500;52.632;20.656;2023-04-28T03:45:34;55.90;;;26.40;;
75851;SDS011;64500;52.632;20.656;2023-04-28T03:48:01;52.40;;;25.40;;
75851;SDS011;64500;52.632;20.656;2023-04-28T03:50:28;67.60;;;29.00;;
75851;SDS011;64500;52.632;20.656;2023-04-28T03:52:55;64.80;;;29.90;;
75851;SDS011;64500;52.632;20.656;2023-04-28T03:55:22;64.60;;;31.60;;
75851;SDS011;64500;52.632;20.656;2023-04-28T03:57:51;59.80;;;30.40;;
75851;SDS011;64500;52.632;20.656;2023-04-28T04:00:18;78.30;;;32.00;;
75851;SDS011;64500;52.632;20.656;2023-04-28T04:02:46;226.00;;;43.00;;
75851;SDS011;64500;52.632;20.656;2023-04-28T04:05:12;73.20;;;32.60;;
75851;SDS011;64500;52.632;20.656;2023-04-28T04:07:39;77.80;;;31.50;;
75851;SDS011;64500;52.632;20.656;2023-04-28T04:10:07;62.80;;;29.00;;
75851;SDS011;64500;52.632;20.656;2023-04-28T04:12:34;56.40;;;26.90;;
75851;SDS011;64500;52.632;20.656;2023-04-28T04:15:01;75.40;;;27.70;;
75851;SDS011;64500;52.632;20.656;2023-04-28T04:17:29;60.90;;;25.70;;
75851;SDS011;64500;52.632;20.656;2023-04-28T04:19:56;48.30;;;26.10;;
75851;SDS011;64500;52.632;20.656;2023-04-28T04:22:23;72.30;;;36.20;;
75851;SDS011;64500;52.632;20.656;2023-04-28T04:24:50;70.60;;;34.50;;
75851;SDS011;64500;52.632;20.656;2023-04-28T04:27:17;55.60;;;29.30;;
75851;SDS011;64500;52.632;20.656;2023-04-28T04:29:44;50.40;;;26.80;;
75851;SDS011;64500;52.632;20.656;2023-04-28T04:32:11;42.20;;;23.10;;
75851;SDS011;64500;52.632;20.656;2023-04-28T04:34:38;40.20;;;22.30;;
75851;SDS011;64500;52.632;20.656;2023-04-28T04:37:05;38.50;;;21.50;;
75851;SDS011;64500;52.632;20.656;2023-04-28T04:39:32;38.80;;;21.60;;
75851;SDS011;64500;52.632;20.656;2023-04-28T04:41:59;38.00;;;22.00;;
75851;SDS011;64500;52.632;20.656;2023-04-28T04:44:26;35.40;;;20.40;;
75851;SDS011;64500;52.632;20.656;2023-04-28T04:46:53;38.10;;;21.30;;
75851;SDS011;64500;52.632;20.656;2023-04-28T04:49:19;38.20;;;20.80;;
75851;SDS011;64500;52.632;20.656;2023-04-28T04:51:46;39.00;;;20.50;;
75851;SDS011;64500;52.632;20.656;2023-04-28T04:54:13;39.20;;;20.70;;
75851;SDS011;64500;52.632;20.656;2023-04-28T04:56:40;34.50;;;19.90;;
75851;SDS011;64500;52.632;20.656;2023-04-28T04:59:08;32.90;;;19.70;;
75851;SDS011;64500;52.632;20.656;2023-04-28T05:01:35;33.10;;;18.80;;
75851;SDS011;64500;52.632;20.656;2023-04-28T05:04:02;32.30;;;18.50;;
75851;SDS011;64500;52.632;20.656;2023-04-28T05:06:29;35.50;;;19.60;;
75851;SDS011;64500;52.632;20.656;2023-04-28T05:08:57;35.30;;;19.40;;
75851;SDS011;64500;52.632;20.656;2023-04-28T05:11:24;30.90;;;18.80;;
75851;SDS011;64500;52.632;20.656;2023-04-28T05:13:51;31.40;;;18.20;;
75851;SDS011;64500;52.632;20.656;2023-04-28T05:16:18;31.80;;;18.20;;
75851;SDS011;64500;52.632;20.656;2023-04-28T05:18:45;31.00;;;18.60;;
75851;SDS011;64500;52.632;20.656;2023-04-28T05:21:12;30.20;;;17.70;;
75851;SDS011;64500;52.632;20.656;2023-04-28T05:23:39;33.70;;;17.80;;
75851;SDS011;64500;52.632;20.656;2023-04-28T05:26:06;28.00;;;17.40;;
75851;SDS011;64500;52.632;20.656;2023-04-28T05:28:33;26.70;;;16.00;;
75851;SDS011;64500;52.632;20.656;2023-04-28T05:31:00;29.70;;;17.30;;
75851;SDS011;64500;52.632;20.656;2023-04-28T05:33:27;30.70;;;16.40;;
75851;SDS011;64500;52.632;20.656;2023-04-28T05:35:54;28.40;;;14.80;;
75851;SDS011;64500;52.632;20.656;2023-04-28T05:38:21;25.60;;;13.00;;
75851;SDS011;64500;52.632;20.656;2023-04-28T05:40:49;27.40;;;12.40;;
75851;SDS011;64500;52.632;20.656;2023-04-28T05:43:16;24.70;;;12.70;;
75851;SDS011;64500;52.632;20.656;2023-04-28T05:45:42;25.10;;;13.00;;
75851;SDS011;64500;52.632;20.656;2023-04-28T05:48:09;20.30;;;11.80;;
75851;SDS011;64500;52.632;20.656;2023-04-28T05:50:36;27.50;;;12.00;;
75851;SDS011;64500;52.632;20.656;2023-04-28T05:53:03;25.80;;;12.10;;
75851;SDS011;64500;52.632;20.656;2023-04-28T05:55:30;23.40;;;11.70;;
75851;SDS011;64500;52.632;20.656;2023-04-28T05:57:57;19.40;;;9.90;;
75851;SDS011;64500;52.632;20.656;2023-04-28T06:00:25;16.30;;;9.20;;
75851;SDS011;64500;52.632;20.656;2023-04-28T06:02:52;20.00;;;9.60;;
75851;SDS011;64500;52.632;20.656;2023-04-28T06:05:19;19.00;;;9.20;;
75851;SDS011;64500;52.632;20.656;2023-04-28T06:07:46;17.00;;;8.20;;
75851;SDS011;64500;52.632;20.656;2023-04-28T06:10:13;18.80;;;8.40;;
75851;SDS011;64500;52.632;20.656;2023-04-28T06:12:41;14.00;;;7.50;;
75851;SDS011;64500;52.632;20.656;2023-04-28T06:15:08;18.20;;;9.10;;
75851;SDS011;64500;52.632;20.656;2023-04-28T06:17:37;17.40;;;8.40;;
75851;SDS011;64500;52.632;20.656;2023-04-28T06:20:05;19.30;;;9.00;;
75851;SDS011;64500;52.632;20.656;2023-04-28T06:22:33;16.40;;;7.90;;
75851;SDS011;64500;52.632;20.656;2023-04-28T06:25:00;17.00;;;9.00;;
75851;SDS011;64500;52.632;20.656;2023-04-28T06:27:27;17.50;;;8.60;;
75851;SDS011;64500;52.632;20.656;2023-04-28T06:29:54;18.60;;;9.50;;
75851;SDS011;64500;52.632;20.656;2023-04-28T06:32:21;15.40;;;8.30;;
75851;SDS011;64500;52.632;20.656;2023-04-28T06:34:48;17.80;;;8.80;;
75851;SDS011;64500;52.632;20.656;2023-04-28T06:37:15;18.20;;;9.00;;
75851;SDS011;64500;52.632;20.656;2023-04-28T06:39:42;15.40;;;7.40;;
75851;SDS011;64500;52.632;20.656;2023-04-28T06:42:09;10.10;;;4.10;;
75851;SDS011;64500;52.632;20.656;2023-04-28T06:44:36;7.80;;;2.20;;
75851;SDS011;64500;52.632;20.656;2023-04-28T06:47:03;9.20;;;4.10;;
75851;SDS011;64500;52.632;20.656;2023-04-28T06:49:30;9.00;;;3.50;;
75851;SDS011;64500;52.632;20.656;2023-04-28T06:51:57;10.90;;;4.30;;
75851;SDS011;64500;52.632;20.656;2023-04-28T06:54:24;10.00;;;4.30;;
75851;SDS011;64500;52.632;20.656;2023-04-28T06:56:51;11.80;;;4.80;;
75851;SDS011;64500;52.632;20.656;2023-04-28T06:59:17;11.10;;;4.80;;
75851;SDS011;64500;52.632;20.656;2023-04-28T07:01:44;9.80;;;4.70;;
75851;SDS011;64500;52.632;20.656;2023-04-28T07:04:11;11.40;;;4.90;;
75851;SDS011;64500;52.632;20.656;2023-04-28T07:06:38;9.90;;;4.30;;
75851;SDS011;64500;52.632;20.656;2023-04-28T07:09:05;10.10;;;3.80;;
75851;SDS011;64500;52.632;20.656;2023-04-28T07:11:32;9.30;;;3.40;;
75851;SDS011;64500;52.632;20.656;2023-04-28T07:13:59;10.70;;;3.90;;
75851;SDS011;64500;52.632;20.656;2023-04-28T07:16:26;9.30;;;3.50;;
75851;SDS011;64500;52.632;20.656;2023-04-28T07:18:53;9.70;;;4.20;;
75851;SDS011;64500;52.632;20.656;2023-04-28T07:21:20;8.50;;;3.20;;
75851;SDS011;64500;52.632;20.656;2023-04-28T07:23:47;9.30;;;3.70;;
75851;SDS011;64500;52.632;20.656;2023-04-28T07:26:14;9.50;;;3.90;;
75851;SDS011;64500;52.632;20.656;2023-04-28T07:28:46;8.80;;;3.30;;
75851;SDS011;64500;52.632;20.656;2023-04-28T07:31:13;8.70;;;3.30;;
75851;SDS011;64500;52.632;20.656;2023-04-28T07:33:40;8.40;;;2.90;;
75851;SDS011;64500;52.632;20.656;2023-04-28T07:36:07;9.80;;;3.40;;
75851;SDS011;64500;52.632;20.656;2023-04-28T07:38:34;6.70;;;2.70;;
75851;SDS011;64500;52.632;20.656;2023-04-28T07:41:02;8.80;;;2.90;;
75851;SDS011;64500;52.632;20.656;2023-04-28T07:43:29;9.60;;;3.00;;
75851;SDS011;64500;52.632;20.656;2023-04-28T07:45:56;9.30;;;3.10;;
75851;SDS011;64500;52.632;20.656;2023-04-28T07:48:24;6.40;;;2.20;;
75851;SDS011;64500;52.632;20.656;2023-04-28T07:50:52;8.10;;;2.60;;
75851;SDS011;64500;52.632;20.656;2023-04-28T07:53:19;7.30;;;2.70;;
75851;SDS011;64500;52.632;20.656;2023-04-28T07:55:46;9.50;;;2.80;;
75851;SDS011;64500;52.632;20.656;2023-04-28T07:58:13;7.20;;;2.30;;
75851;SDS011;64500;52.632;20.656;2023-04-28T08:00:40;10.80;;;2.90;;
75851;SDS011;64500;52.632;20.656;2023-04-28T08:03:07;9.90;;;2.70;;
75851;SDS011;64500;52.632;20.656;2023-04-28T08:05:34;9.50;;;3.10;;
75851;SDS011;64500;52.632;20.656;2023-04-28T08:08:01;7.40;;;2.70;;
75851;SDS011;64500;52.632;20.656;2023-04-28T08:10:28;8.50;;;3.00;;
75851;SDS011;64500;52.632;20.656;2023-04-28T08:12:55;8.00;;;2.80;;
75851;SDS011;64500;52.632;20.656;2023-04-28T08:15:22;7.10;;;2.40;;
75851;SDS011;64500;52.632;20.656;2023-04-28T08:17:49;6.30;;;2.60;;
75851;SDS011;64500;52.632;20.656;2023-04-28T08:20:16;5.70;;;2.20;;
75851;SDS011;64500;52.632;20.656;2023-04-28T08:22:45;7.20;;;2.50;;
75851;SDS011;64500;52.632;20.656;2023-04-28T08:25:12;7.40;;;3.10;;
75851;SDS011;64500;52.632;20.656;2023-04-28T08:27:39;8.10;;;2.50;;
75851;SDS011;64500;52.632;20.656;2023-04-28T08:30:07;7.50;;;2.00;;
75851;SDS011;64500;52.632;20.656;2023-04-28T08:32:34;5.40;;;1.90;;
75851;SDS011;64500;52.632;20.656;2023-04-28T08:35:01;7.10;;;2.40;;
75851;SDS011;64500;52.632;20.656;2023-04-28T08:37:29;6.60;;;2.00;;
75851;SDS011;64500;52.632;20.656;2023-04-28T08:39:56;7.40;;;2.40;;
75851;SDS011;64500;52.632;20.656;2023-04-28T08:42:33;6.20;;;2.20;;
75851;SDS011;64500;52.632;20.656;2023-04-28T08:45:02;7.50;;;2.40;;
75851;SDS011;64500;52.632;20.656;2023-04-28T08:47:34;5.40;;;1.60;;
75851;SDS011;64500;52.632;20.656;2023-04-28T08:50:04;8.10;;;1.80;;
75851;SDS011;64500;52.632;20.656;2023-04-28T08:52:35;4.30;;;1.70;;
75851;SDS011;64500;52.632;20.656;2023-04-28T08:55:05;6.70;;;1.60;;
75851;SDS011;64500;52.632;20.656;2023-04-28T08:57:38;7.10;;;2.30;;
75851;SDS011;64500;52.632;20.656;2023-04-28T09:00:10;5.40;;;1.90;;
75851;SDS011;64500;52.632;20.656;2023-04-28T09:02:38;6.30;;;1.90;;
75851;SDS011;64500;52.632;20.656;2023-04-28T09:05:08;5.60;;;1.90;;
75851;SDS011;64500;52.632;20.656;2023-04-28T09:07:39;6.80;;;2.10;;
75851;SDS011;64500;52.632;20.656;2023-04-28T09:10:17;9.00;;;2.20;;
75851;SDS011;64500;52.632;20.656;2023-04-28T09:12:46;7.70;;;2.30;;
75851;SDS011;64500;52.632;20.656;2023-04-28T09:17:56;6.50;;;2.00;;
75851;SDS011;64500;52.632;20.656;2023-04-28T09:20:24;5.90;;;2.00;;
75851;SDS011;64500;52.632;20.656;2023-04-28T09:22:54;8.10;;;2.20;;
75851;SDS011;64500;52.632;20.656;2023-04-28T09:25:22;6.80;;;1.90;;
75851;SDS011;64500;52.632;20.656;2023-04-28T09:27:49;6.30;;;1.70;;
75851;SDS011;64500;52.632;20.656;2023-04-28T09:30:16;7.70;;;2.20;;
75851;SDS011;64500;52.632;20.656;2023-04-28T09:32:43;5.60;;;2.00;;
75851;SDS011;64500;52.632;20.656;2023-04-28T09:35:10;7.00;;;2.20;;
75851;SDS011;64500;52.632;20.656;2023-04-28T09:37:37;6.80;;;2.20;;
75851;SDS011;64500;52.632;20.656;2023-04-28T09:40:05;7.90;;;2.20;;
75851;SDS011;64500;52.632;20.656;2023-04-28T09:42:38;6.30;;;2.00;;
75851;SDS011;64500;52.632;20.656;2023-04-28T09:45:06;7.20;;;2.10;;
75851;SDS011;64500;52.632;20.656;2023-04-28T09:47:35;6.40;;;2.40;;
75851;SDS011;64500;52.632;20.656;2023-04-28T09:50:05;7.20;;;2.20;;
75851;SDS011;64500;52.632;20.656;2023-04-28T09:52:35;6.50;;;2.20;;
75851;SDS011;64500;52.632;20.656;2023-04-28T09:55:03;5.70;;;2.10;;
75851;SDS011;64500;52.632;20.656;2023-04-28T09:57:33;5.30;;;2.30;;
75851;SDS011;64500;52.632;20.656;2023-04-28T10:00:01;7.10;;;2.10;;
75851;SDS011;64500;52.632;20.656;2023-04-28T10:02:33;6.70;;;2.40;;
75851;SDS011;64500;52.632;20.656;2023-04-28T10:05:01;5.60;;;1.90;;
75851;SDS011;64500;52.632;20.656;2023-04-28T10:07:30;8.80;;;2.30;;
75851;SDS011;64500;52.632;20.656;2023-04-28T10:10:01;7.30;;;2.20;;
75851;SDS011;64500;52.632;20.656;2023-04-28T10:12:29;6.30;;;1.90;;
75851;SDS011;64500;52.632;20.656;2023-04-28T10:14:58;5.60;;;1.70;;
75851;SDS011;64500;52.632;20.656;2023-04-28T10:17:26;5.80;;;1.90;;
75851;SDS011;64500;52.632;20.656;2023-04-28T10:19:54;5.50;;;1.90;;
75851;SDS011;64500;52.632;20.656;2023-04-28T10:27:38;6.80;;;2.30;;
75851;SDS011;64500;52.632;20.656;2023-04-28T10:30:10;7.80;;;2.20;;
75851;SDS011;64500;52.632;20.656;2023-04-28T10:38:12;5.50;;;2.20;;
75851;SDS011;64500;52.632;20.656;2023-04-28T10:40:41;7.70;;;2.10;;
75851;SDS011;64500;52.632;20.656;2023-04-28T10:43:14;7.30;;;2.70;;
75851;SDS011;64500;52.632;20.656;2023-04-28T10:46:00;7.10;;;2.50;;
75851;SDS011;64500;52.632;20.656;2023-04-28T10:56:14;8.50;;;2.40;;
75851;SDS011;64500;52.632;20.656;2023-04-28T10:58:47;8.00;;;2.80;;
75851;SDS011;64500;52.632;20.656;2023-04-28T11:06:20;7.90;;;2.80;;
75851;SDS011;64500;52.632;20.656;2023-04-28T11:09:01;6.80;;;2.80;;
75851;SDS011;64500;52.632;20.656;2023-04-28T11:11:30;9.40;;;2.60;;
75851;SDS011;64500;52.632;20.656;2023-04-28T11:16:52;7.50;;;2.60;;
75851;SDS011;64500;52.632;20.656;2023-04-28T11:19:47;5.90;;;2.60;;
75851;SDS011;64500;52.632;20.656;2023-04-28T11:22:16;7.70;;;2.80;;
75851;SDS011;64500;52.632;20.656;2023-04-28T11:25:00;8.20;;;2.90;;
75851;SDS011;64500;52.632;20.656;2023-04-28T11:27:30;6.60;;;2.40;;
75851;SDS011;64500;52.632;20.656;2023-04-28T11:29:58;7.90;;;2.30;;
75851;SDS011;64500;52.632;20.656;2023-04-28T11:32:27;7.20;;;2.80;;
75851;SDS011;64500;52.632;20.656;2023-04-28T11:34:56;9.10;;;2.80;;
75851;SDS011;64500;52.632;20.656;2023-04-28T11:37:23;7.40;;;2.70;;
75851;SDS011;64500;52.632;20.656;2023-04-28T11:39:51;7.30;;;2.40;;
75851;SDS011;64500;52.632;20.656;2023-04-28T11:42:18;8.70;;;3.00;;
75851;SDS011;64500;52.632;20.656;2023-04-28T11:44:49;10.00;;;2.80;;
75851;SDS011;64500;52.632;20.656;2023-04-28T11:47:29;9.10;;;3.20;;
75851;SDS011;64500;52.632;20.656;2023-04-28T11:49:57;7.50;;;2.70;;
75851;SDS011;64500;52.632;20.656;2023-04-28T11:52:24;8.10;;;2.70;;
75851;SDS011;64500;52.632;20.656;2023-04-28T11:54:53;6.20;;;2.50;;
75851;SDS011;64500;52.632;20.656;2023-04-28T11:57:26;7.50;;;2.70;;
75851;SDS011;64500;52.632;20.656;2023-04-28T12:00:10;6.90;;;2.50;;
75851;SDS011;64500;52.632;20.656;2023-04-28T12:02:38;6.70;;;2.70;;
75851;SDS011;64500;52.632;20.656;2023-04-28T12:05:06;6.40;;;2.50;;
75851;SDS011;64500;52.632;20.656;2023-04-28T12:07:42;7.10;;;2.70;;
75851;SDS011;64500;52.632;20.656;2023-04-28T12:12:39;6.50;;;2.40;;
75851;SDS011;64500;52.632;20.656;2023-04-28T12:15:08;12.50;;;3.20;;
75851;SDS011;64500;52.632;20.656;2023-04-28T12:17:36;8.70;;;2.60;;
75851;SDS011;64500;52.632;20.656;2023-04-28T12:20:05;8.00;;;3.10;;
75851;SDS011;64500;52.632;20.656;2023-04-28T12:22:44;7.90;;;2.90;;
75851;SDS011;64500;52.632;20.656;2023-04-28T12:25:15;8.00;;;2.40;;
75851;SDS011;64500;52.632;20.656;2023-04-28T12:28:03;7.10;;;2.70;;
75851;SDS011;64500;52.632;20.656;2023-04-28T12:30:33;6.90;;;2.60;;
75851;SDS011;64500;52.632;20.656;2023-04-28T12:33:04;7.30;;;2.70;;
75851;SDS011;64500;52.632;20.656;2023-04-28T12:35:31;9.40;;;2.90;;
75851;SDS011;64500;52.632;20.656;2023-04-28T12:37:59;8.20;;;3.20;;
75851;SDS011;64500;52.632;20.656;2023-04-28T12:40:26;11.10;;;3.10;;
75851;SDS011;64500;52.632;20.656;2023-04-28T12:42:53;7.20;;;3.30;;
75851;SDS011;64500;52.632;20.656;2023-04-28T12:45:20;7.60;;;3.20;;
75851;SDS011;64500;52.632;20.656;2023-04-28T12:47:47;13.10;;;3.90;;
75851;SDS011;64500;52.632;20.656;2023-04-28T12:50:14;7.40;;;3.30;;
75851;SDS011;64500;52.632;20.656;2023-04-28T12:52:41;7.10;;;3.00;;
75851;SDS011;64500;52.632;20.656;2023-04-28T12:55:08;7.70;;;3.30;;
75851;SDS011;64500;52.632;20.656;2023-04-28T12:57:35;8.50;;;3.10;;
75851;SDS011;64500;52.632;20.656;2023-04-28T13:00:03;7.20;;;2.90;;
75851;SDS011;64500;52.632;20.656;2023-04-28T13:02:31;9.90;;;3.20;;
75851;SDS011;64500;52.632;20.656;2023-04-28T13:04:59;10.20;;;3.50;;
75851;SDS011;64500;52.632;20.656;2023-04-28T13:07:27;9.60;;;3.50;;
75851;SDS011;64500;52.632;20.656;2023-04-28T13:09:55;9.00;;;3.70;;
75851;SDS011;64500;52.632;20.656;2023-04-28T13:12:22;8.20;;;3.30;;
75851;SDS011;64500;52.632;20.656;2023-04-28T13:14:49;8.80;;;3.80;;
75851;SDS011;64500;52.632;20.656;2023-04-28T13:17:16;9.80;;;4.00;;
75851;SDS011;64500;52.632;20.656;2023-04-28T13:19:45;8.90;;;3.70;;
75851;SDS011;64500;52.632;20.656;2023-04-28T13:22:12;9.60;;;3.70;;
75851;SDS011;64500;52.632;20.656;2023-04-28T13:24:39;8.00;;;3.90;;
75851;SDS011;64500;52.632;20.656;2023-04-28T13:27:07;8.10;;;3.70;;
75851;SDS011;64500;52.632;20.656;2023-04-28T13:29:37;12.30;;;4.50;;
75851;SDS011;64500;52.632;20.656;2023-04-28T13:32:06;7.70;;;3.70;;
75851;SDS011;64500;52.632;20.656;2023-04-28T13:34:33;9.00;;;4.20;;
75851;SDS011;64500;52.632;20.656;2023-04-28T13:37:00;9.60;;;4.10;;
75851;SDS011;64500;52.632;20.656;2023-04-28T13:39:27;9.20;;;4.10;;
75851;SDS011;64500;52.632;20.656;2023-04-28T13:41:54;11.00;;;4.50;;
75851;SDS011;64500;52.632;20.656;2023-04-28T13:44:32;7.60;;;4.00;;
75851;SDS011;64500;52.632;20.656;2023-04-28T13:47:00;11.90;;;4.30;;
75851;SDS011;64500;52.632;20.656;2023-04-28T13:49:26;11.80;;;5.00;;
75851;SDS011;64500;52.632;20.656;2023-04-28T13:51:54;9.90;;;4.50;;
75851;SDS011;64500;52.632;20.656;2023-04-28T13:54:21;8.30;;;4.30;;
75851;SDS011;64500;52.632;20.656;2023-04-28T13:56:48;11.00;;;4.70;;
75851;SDS011;64500;52.632;20.656;2023-04-28T13:59:15;10.80;;;4.80;;
75851;SDS011;64500;52.632;20.656;2023-04-28T14:01:42;10.00;;;5.20;;
75851;SDS011;64500;52.632;20.656;2023-04-28T14:04:09;10.30;;;4.80;;
75851;SDS011;64500;52.632;20.656;2023-04-28T14:06:36;9.50;;;4.60;;
75851;SDS011;64500;52.632;20.656;2023-04-28T14:09:03;8.40;;;4.30;;
75851;SDS011;64500;52.632;20.656;2023-04-28T14:11:30;10.00;;;4.10;;
75851;SDS011;64500;52.632;20.656;2023-04-28T14:13:57;9.80;;;4.20;;
75851;SDS011;64500;52.632;20.656;2023-04-28T14:16:24;11.90;;;4.80;;
75851;SDS011;64500;52.632;20.656;2023-04-28T14:18:51;10.80;;;4.50;;
75851;SDS011;64500;52.632;20.656;2023-04-28T14:21:17;9.90;;;4.50;;
75851;SDS011;64500;52.632;20.656;2023-04-28T14:23:44;11.00;;;5.10;;
75851;SDS011;64500;52.632;20.656;2023-04-28T14:26:11;10.50;;;4.50;;
75851;SDS011;64500;52.632;20.656;2023-04-28T14:28:38;10.40;;;5.10;;
75851;SDS011;64500;52.632;20.656;2023-04-28T14:31:05;10.30;;;4.50;;
75851;SDS011;64500;52.632;20.656;2023-04-28T14:33:34;12.60;;;5.60;;
75851;SDS011;64500;52.632;20.656;2023-04-28T14:36:00;11.40;;;5.30;;
75851;SDS011;64500;52.632;20.656;2023-04-28T14:38:28;11.10;;;4.90;;
75851;SDS011;64500;52.632;20.656;2023-04-28T14:40:56;10.90;;;5.20;;
75851;SDS011;64500;52.632;20.656;2023-04-28T14:43:23;9.50;;;5.20;;
75851;SDS011;64500;52.632;20.656;2023-04-28T14:45:50;12.10;;;5.70;;
75851;SDS011;64500;52.632;20.656;2023-04-28T14:48:17;9.10;;;4.90;;
75851;SDS011;64500;52.632;20.656;2023-04-28T14:50:45;9.50;;;5.00;;
75851;SDS011;64500;52.632;20.656;2023-04-28T14:53:11;11.60;;;5.30;;
75851;SDS011;64500;52.632;20.656;2023-04-28T14:55:38;10.90;;;5.80;;
75851;SDS011;64500;52.632;20.656;2023-04-28T14:58:05;10.70;;;5.40;;